Time;durP1;ratioP1;P1;durP2;ratioP2;P2;SDS_P1;SDS_P2;PMS_P1;PMS_P2;Temp;Humidity;BMP_temperature;BMP_pressure;BME280_temperature;BME280_humidity;BME280_pressure;Samples;Min_cycle;Max_cycle;Signal;HPM_P1;HPM_P2
2022/01/13 00:00:30;;;;;;;59.40;27.63;;;6.40;80.00;;;;;;5095696;28;20063;-61
2022/01/13 00:02:56;;;;;;;54.23;23.63;;;6.50;80.00;;;;;;5094115;28;20032;-61
2022/01/13 00:05:28;;;;;;;57.63;24.73;;;6.50;80.00;;;;;;5094622;28;20051;-61
2022/01/13 00:07:57;;;;;;;55.97;25.23;;;6.50;80.00;;;;;;5085746;28;20119;-61
2022/01/13 00:10:23;;;;;;;50.73;23.50;;;6.40;79.90;;;;;;5094628;28;20047;-61
2022/01/13 00:12:57;;;;;;;59.00;24.50;;;6.40;80.00;;;;;;5094857;28;20041;-61
2022/01/13 00:15:36;;;;;;;55.83;24.97;;;6.40;80.00;;;;;;5091398;28;20087;-61
2022/01/13 00:18:09;;;;;;;57.93;26.43;;;6.40;80.10;;;;;;5084891;28;20036;-61
2022/01/13 00:26:16;;;;;;;56.30;25.10;;;6.40;80.10;;;;;;5095244;28;20373;-61
2022/01/13 00:28:47;;;;;;;55.60;23.90;;;6.40;80.10;;;;;;5094470;28;20116;-61
2022/01/13 00:31:13;;;;;;;62.47;26.65;;;6.40;80.10;;;;;;5095079;28;20043;-61
2022/01/13 00:33:44;;;;;;;56.23;24.57;;;6.40;80.10;;;;;;5094915;28;20040;-61
2022/01/13 00:36:10;;;;;;;59.38;26.48;;;6.40;80.10;;;;;;5095408;28;20502;-61
2022/01/13 00:38:35;;;;;;;50.93;23.17;;;6.40;80.10;;;;;;5094521;28;20020;-61
2022/01/13 00:41:01;;;;;;;55.90;22.77;;;6.30;80.10;;;;;;5095167;28;20349;-61
2022/01/13 00:43:27;;;;;;;57.37;25.00;;;6.40;80.10;;;;;;5094106;28;20456;-61
2022/01/13 00:45:53;;;;;;;51.60;23.90;;;6.40;80.10;;;;;;5095123;28;20024;-61
2022/01/13 00:48:19;;;;;;;60.50;24.40;;;6.30;80.10;;;;;;5094379;28;20028;-61
2022/01/13 00:50:45;;;;;;;53.10;22.77;;;6.30;80.10;;;;;;5094822;28;20356;-61
2022/01/13 00:53:11;;;;;;;48.07;21.93;;;6.30;80.10;;;;;;5094159;28;20100;-61
2022/01/13 00:55:47;;;;;;;58.63;25.37;;;6.30;80.20;;;;;;5094166;28;20031;-61
2022/01/13 00:58:13;;;;;;;60.73;25.50;;;6.30;80.20;;;;;;5094145;28;20020;-61
2022/01/13 01:00:39;;;;;;;57.80;25.93;;;6.30;80.20;;;;;;5093803;28;20027;-61
2022/01/13 01:03:07;;;;;;;61.23;25.10;;;6.30;80.20;;;;;;5094460;28;20020;-61
2022/01/13 01:05:34;;;;;;;53.30;24.90;;;6.30;80.30;;;;;;5074490;28;20045;-61
2022/01/13 01:08:01;;;;;;;59.03;25.07;;;6.30;80.30;;;;;;5077209;28;20032;-61
2022/01/13 01:10:26;;;;;;;61.23;26.47;;;6.30;80.30;;;;;;5091521;28;20081;-61
2022/01/13 01:12:52;;;;;;;62.17;25.27;;;6.40;80.40;;;;;;5094147;28;20028;-61
2022/01/13 01:15:17;;;;;;;58.10;23.77;;;6.30;80.40;;;;;;5093745;28;20426;-61
2022/01/13 01:17:48;;;;;;;56.50;24.33;;;6.30;80.40;;;;;;5094057;28;20085;-61
2022/01/13 01:20:14;;;;;;;56.97;24.33;;;6.30;80.40;;;;;;5091124;28;20028;-66
2022/01/13 01:22:56;;;;;;;59.10;23.73;;;6.30;80.40;;;;;;5094129;28;20109;-61
2022/01/13 01:27:56;;;;;;;62.33;25.27;;;6.30;80.50;;;;;;5092641;28;20047;-61
2022/01/13 01:30:37;;;;;;;62.70;25.83;;;6.30;80.50;;;;;;5086310;28;20453;-61
2022/01/13 01:33:03;;;;;;;55.20;23.57;;;6.30;80.60;;;;;;5084766;28;20064;-61
2022/01/13 01:35:29;;;;;;;52.67;23.30;;;6.30;80.60;;;;;;5079044;28;20064;-61
2022/01/13 01:37:55;;;;;;;55.87;24.93;;;6.30;80.60;;;;;;5075197;28;20073;-61
2022/01/13 01:40:22;;;;;;;50.43;21.57;;;6.30;80.60;;;;;;5081288;28;20091;-61
2022/01/13 01:42:48;;;;;;;53.70;24.47;;;6.30;80.70;;;;;;5094224;28;20031;-60
2022/01/13 01:45:15;;;;;;;55.07;22.33;;;6.30;80.70;;;;;;5093243;28;20020;-61
2022/01/13 01:47:43;;;;;;;54.80;24.00;;;6.30;80.70;;;;;;5094192;28;20032;-61
2022/01/13 01:50:18;;;;;;;53.73;21.73;;;6.30;80.70;;;;;;5089752;28;20449;-60
2022/01/13 01:52:45;;;;;;;56.10;23.07;;;6.30;80.80;;;;;;5086142;28;20060;-61
2022/01/13 01:55:11;;;;;;;55.23;23.47;;;6.30;80.80;;;;;;5094517;28;20028;-61
2022/01/13 01:57:36;;;;;;;49.00;21.00;;;6.30;80.70;;;;;;5098389;28;20088;-61
2022/01/13 02:00:06;;;;;;;44.80;18.97;;;6.30;80.80;;;;;;5088056;28;20107;-61
2022/01/13 02:02:38;;;;;;;51.13;21.97;;;6.30;80.80;;;;;;5093559;28;20055;-61
2022/01/13 02:05:04;;;;;;;48.73;21.13;;;6.30;80.80;;;;;;5097665;28;20162;-61
2022/01/13 02:07:30;;;;;;;43.53;18.73;;;6.30;80.80;;;;;;5097101;28;20449;-64
2022/01/13 02:09:55;;;;;;;43.03;18.53;;;6.30;80.80;;;;;;5097195;28;20032;-61
2022/01/13 02:14:59;;;;;;;45.97;20.57;;;6.20;80.90;;;;;;5097502;28;20453;-61
2022/01/13 02:17:28;;;;;;;47.10;19.97;;;6.20;80.90;;;;;;5097003;28;20039;-61
2022/01/13 02:19:56;;;;;;;40.93;19.57;;;6.20;80.90;;;;;;5096983;28;20032;-61
2022/01/13 02:22:23;;;;;;;38.37;18.97;;;6.20;81.00;;;;;;5097442;28;20438;-61
2022/01/13 02:24:49;;;;;;;46.03;20.67;;;6.20;81.00;;;;;;5097306;28;20098;-61
2022/01/13 02:27:15;;;;;;;45.87;19.97;;;6.30;81.00;;;;;;5097633;28;20039;-62
2022/01/13 02:29:41;;;;;;;43.27;20.73;;;6.30;81.00;;;;;;5096407;28;20031;-61
2022/01/13 02:32:07;;;;;;;44.77;19.97;;;6.30;81.00;;;;;;5096926;28;20119;-61
2022/01/13 02:34:33;;;;;;;45.10;19.50;;;6.30;81.00;;;;;;5095754;28;20028;-60
2022/01/13 02:36:59;;;;;;;41.67;17.53;;;6.30;81.10;;;;;;5096278;28;20042;-61
2022/01/13 02:39:30;;;;;;;44.60;19.47;;;6.30;81.00;;;;;;5095178;28;20356;-61
2022/01/13 02:42:00;;;;;;;43.10;19.37;;;6.30;81.10;;;;;;5097040;28;20485;-61
2022/01/13 02:44:26;;;;;;;45.23;20.53;;;6.30;81.10;;;;;;5095900;28;20071;-61
2022/01/13 02:49:23;;;;;;;40.70;17.67;;;6.30;81.20;;;;;;5096346;28;20033;-61
2022/01/13 02:51:52;;;;;;;46.17;19.97;;;6.30;81.30;;;;;;5096424;28;20038;-61
2022/01/13 02:54:19;;;;;;;47.07;19.43;;;6.30;81.30;;;;;;5096196;28;20032;-61
2022/01/13 02:56:45;;;;;;;44.50;19.90;;;6.30;81.30;;;;;;5095321;28;20402;-61
2022/01/13 02:59:12;;;;;;;46.27;18.17;;;6.30;81.40;;;;;;5096525;28;20035;-61
2022/01/13 03:01:39;;;;;;;43.80;18.90;;;6.30;81.40;;;;;;5095413;28;20032;-61
2022/01/13 03:04:07;;;;;;;41.97;19.70;;;6.30;81.40;;;;;;5075821;28;20392;-61
2022/01/13 03:06:38;;;;;;;43.83;18.67;;;6.30;81.50;;;;;;5094078;28;20039;-61
2022/01/13 03:09:05;;;;;;;40.37;18.93;;;6.20;81.40;;;;;;5096836;28;20431;-61
2022/01/13 03:11:34;;;;;;;44.57;18.63;;;6.20;81.50;;;;;;5096431;28;20028;-61
2022/01/13 03:14:01;;;;;;;49.50;20.83;;;6.20;81.50;;;;;;5078631;28;20039;-61
2022/01/13 03:16:27;;;;;;;42.67;18.07;;;6.20;81.50;;;;;;5095341;28;20463;-61
2022/01/13 03:18:52;;;;;;;44.67;19.03;;;6.20;81.50;;;;;;5096338;28;20027;-61
2022/01/13 03:21:18;;;;;;;44.23;18.60;;;6.20;81.60;;;;;;5096519;28;20047;-61
2022/01/13 03:23:44;;;;;;;42.07;18.07;;;6.30;81.60;;;;;;5095081;28;20047;-61
2022/01/13 03:26:09;;;;;;;40.47;18.30;;;6.30;81.60;;;;;;5095962;28;20074;-61
2022/01/13 03:28:39;;;;;;;37.83;18.13;;;6.30;81.60;;;;;;5095966;28;20048;-61
2022/01/13 03:31:06;;;;;;;43.07;17.50;;;6.20;81.50;;;;;;5095667;28;20027;-61
2022/01/13 03:33:32;;;;;;;36.03;16.77;;;6.30;81.60;;;;;;5094943;28;20036;-61
2022/01/13 03:35:59;;;;;;;37.33;16.47;;;6.30;81.60;;;;;;5095970;28;20031;-61
2022/01/13 03:38:25;;;;;;;42.00;18.43;;;6.20;81.50;;;;;;5095878;28;20093;-61
2022/01/13 03:40:51;;;;;;;34.23;15.80;;;6.30;81.60;;;;;;5095870;28;20077;-60
2022/01/13 03:43:17;;;;;;;34.33;16.43;;;6.30;81.60;;;;;;5096135;28;20036;-61
2022/01/13 03:45:44;;;;;;;35.23;15.93;;;6.30;81.60;;;;;;5096028;28;20479;-61
2022/01/13 03:48:13;;;;;;;33.17;14.93;;;6.20;81.60;;;;;;5096588;28;20137;-61
2022/01/13 03:50:39;;;;;;;33.80;15.60;;;6.20;81.70;;;;;;5095347;28;20123;-61
2022/01/13 03:53:27;;;;;;;35.53;16.77;;;6.20;82.40;;;;;;5087320;28;20385;-61
2022/01/13 03:56:17;;;;;;;33.87;17.03;;;6.20;81.80;;;;;;5095662;28;20515;-61
2022/01/13 03:59:02;;;;;;;35.60;16.67;;;6.20;81.80;;;;;;5095145;28;20417;-61
2022/01/13 04:01:51;;;;;;;41.40;16.97;;;6.20;81.80;;;;;;5094909;28;20020;-61
2022/01/13 04:04:17;;;;;;;29.07;13.37;;;6.20;81.80;;;;;;5093637;28;20032;-61
2022/01/13 04:06:44;;;;;;;36.63;15.17;;;6.20;81.80;;;;;;5095669;28;20092;-61
2022/01/13 04:09:40;;;;;;;36.23;15.13;;;6.20;81.80;;;;;;5077774;28;20024;-61
2022/01/13 04:12:08;;;;;;;33.30;15.17;;;6.20;82.50;;;;;;5094322;28;20184;-61
2022/01/13 04:17:07;;;;;;;35.93;15.10;;;6.20;81.90;;;;;;5095613;28;20058;-60
2022/01/13 04:19:33;;;;;;;33.77;15.00;;;6.10;81.80;;;;;;5094723;28;20032;-61
2022/01/13 04:21:58;;;;;;;30.10;14.03;;;6.10;81.90;;;;;;5095050;28;20342;-61
2022/01/13 04:24:24;;;;;;;40.70;17.20;;;6.20;81.90;;;;;;5083321;28;20317;-61
2022/01/13 04:26:52;;;;;;;39.43;15.37;;;6.20;81.90;;;;;;5093723;28;20028;-61
2022/01/13 04:29:27;;;;;;;34.83;15.27;;;6.20;81.90;;;;;;5094998;28;20494;-61
2022/01/13 04:31:53;;;;;;;32.47;16.00;;;6.20;81.90;;;;;;5094626;28;20036;-61
2022/01/13 04:34:19;;;;;;;52.53;17.20;;;6.10;81.80;;;;;;5095010;28;20030;-61
2022/01/13 04:36:45;;;;;;;38.20;17.00;;;6.10;81.80;;;;;;5094650;28;20356;-61
2022/01/13 04:39:14;;;;;;;40.90;17.27;;;6.10;81.90;;;;;;5094687;28;20463;-61
2022/01/13 04:41:41;;;;;;;35.40;16.47;;;6.10;82.00;;;;;;5094531;28;20036;-61
2022/01/13 04:44:09;;;;;;;35.80;16.03;;;6.10;82.00;;;;;;5093537;28;20047;-61
2022/01/13 04:46:34;;;;;;;39.83;18.00;;;6.10;82.00;;;;;;5094874;28;20024;-61
2022/01/13 04:49:00;;;;;;;36.20;16.17;;;6.10;82.00;;;;;;5092948;28;20032;-61
2022/01/13 04:51:27;;;;;;;37.57;16.27;;;6.10;82.10;;;;;;5094734;28;20043;-61
2022/01/13 04:53:53;;;;;;;36.87;17.20;;;6.10;82.10;;;;;;5094397;28;20365;-61
2022/01/13 04:56:27;;;;;;;35.13;15.30;;;6.00;82.10;;;;;;5094589;28;20028;-61
2022/01/13 04:58:52;;;;;;;39.33;17.00;;;6.00;82.10;;;;;;5093919;28;20040;-61
2022/01/13 05:01:18;;;;;;;37.57;16.67;;;6.00;82.10;;;;;;5093076;28;20115;-61
2022/01/13 05:03:44;;;;;;;39.50;16.73;;;6.00;82.10;;;;;;5091076;28;20040;-61
2022/01/13 05:06:09;;;;;;;36.47;15.30;;;6.00;82.10;;;;;;5090551;28;20024;-61
2022/01/13 05:08:35;;;;;;;34.87;15.67;;;6.00;82.10;;;;;;5087552;28;20036;-61
2022/01/13 05:11:00;;;;;;;45.33;16.57;;;6.00;82.10;;;;;;5090302;28;20028;-61
2022/01/13 05:13:26;;;;;;;32.33;14.90;;;6.00;82.10;;;;;;5093292;28;20346;-61
2022/01/13 05:15:54;;;;;;;46.00;17.67;;;6.00;82.10;;;;;;5094747;28;20034;-61
2022/01/13 05:20:47;;;;;;;33.63;15.60;;;6.00;82.20;;;;;;5093200;28;20577;-63
2022/01/13 05:23:13;;;;;;;36.50;17.17;;;6.00;82.20;;;;;;5092606;28;20020;-63
2022/01/13 05:25:41;;;;;;;31.27;14.13;;;6.00;82.90;;;;;;5092170;28;20089;-63
2022/01/13 05:28:07;;;;;;;34.00;15.23;;;6.00;82.30;;;;;;5091889;28;20070;-63
2022/01/13 05:30:33;;;;;;;37.20;16.10;;;6.00;82.20;;;;;;5091398;28;20020;-64
2022/01/13 05:32:59;;;;;;;36.97;16.37;;;5.90;82.20;;;;;;5092524;28;20097;-63
2022/01/13 05:35:25;;;;;;;28.03;13.47;;;6.00;82.30;;;;;;5093090;28;20020;-63
2022/01/13 05:37:51;;;;;;;34.37;13.90;;;6.00;82.30;;;;;;5093311;28;20024;-63
2022/01/13 05:40:17;;;;;;;33.17;15.43;;;5.90;82.20;;;;;;5094381;28;20344;-63
2022/01/13 05:42:42;;;;;;;27.83;12.57;;;6.00;82.30;;;;;;5094087;28;20035;-63
2022/01/13 05:45:15;;;;;;;37.57;13.43;;;6.00;82.30;;;;;;5094085;28;20028;-63
2022/01/13 05:47:47;;;;;;;34.53;14.23;;;5.90;82.20;;;;;;5093861;28;20032;-63
2022/01/13 05:50:15;;;;;;;32.10;15.07;;;5.90;82.20;;;;;;5093619;28;20043;-63
2022/01/13 05:52:40;;;;;;;27.47;14.03;;;5.90;82.30;;;;;;5092701;28;20040;-63
2022/01/13 05:55:07;;;;;;;36.40;14.63;;;5.90;82.30;;;;;;5094115;28;20031;-64
2022/01/13 05:57:33;;;;;;;28.13;13.30;;;5.90;82.30;;;;;;5094307;28;20028;-63
2022/01/13 05:59:58;;;;;;;33.53;15.07;;;5.90;82.30;;;;;;5093618;28;20031;-64
2022/01/13 06:02:24;;;;;;;24.77;11.83;;;5.90;82.30;;;;;;5093778;28;20028;-64
2022/01/13 06:04:50;;;;;;;29.87;14.17;;;5.90;82.30;;;;;;5093410;28;20043;-63
2022/01/13 06:07:16;;;;;;;26.03;13.07;;;5.90;82.40;;;;;;5094238;28;20432;-64
2022/01/13 06:09:43;;;;;;;27.17;12.87;;;5.90;82.40;;;;;;5089305;28;20391;-63
2022/01/13 06:12:09;;;;;;;29.07;13.10;;;5.90;83.00;;;;;;5094184;28;20032;-63
2022/01/13 06:14:35;;;;;;;26.40;12.17;;;5.90;82.40;;;;;;5093892;28;20032;-63
2022/01/13 06:17:01;;;;;;;30.97;13.13;;;5.80;82.30;;;;;;5094184;28;20102;-63
2022/01/13 06:19:26;;;;;;;22.63;11.47;;;5.80;82.30;;;;;;5093277;28;20182;-63
2022/01/13 06:21:52;;;;;;;30.13;13.20;;;5.80;82.30;;;;;;5094063;28;20028;-63
2022/01/13 06:24:18;;;;;;;25.77;12.87;;;5.90;82.40;;;;;;5093347;28;20114;-63
2022/01/13 06:26:44;;;;;;;25.97;12.80;;;5.90;82.40;;;;;;5093883;28;20028;-64
2022/01/13 06:29:09;;;;;;;28.33;12.77;;;5.90;82.40;;;;;;5092305;28;20035;-63
2022/01/13 06:31:35;;;;;;;27.40;13.43;;;5.90;82.30;;;;;;5094265;28;20039;-63
2022/01/13 06:34:00;;;;;;;29.43;12.80;;;5.90;82.30;;;;;;5092863;28;20044;-63
2022/01/13 06:36:26;;;;;;;24.17;11.43;;;5.80;82.30;;;;;;5094007;28;20024;-63
2022/01/13 06:38:52;;;;;;;32.33;12.27;;;5.90;82.30;;;;;;5092698;28;20036;-64
2022/01/13 06:41:18;;;;;;;27.10;11.70;;;5.80;82.30;;;;;;5093470;28;20033;-64
2022/01/13 06:43:44;;;;;;;28.97;12.90;;;5.80;82.30;;;;;;5095299;28;20440;-64
2022/01/13 06:46:15;;;;;;;27.70;13.30;;;5.80;82.30;;;;;;5096927;28;20111;-64
2022/01/13 06:48:42;;;;;;;26.00;12.45;;;5.80;82.30;;;;;;5096627;28;20032;-64
2022/01/13 06:51:07;;;;;;;29.00;12.83;;;5.80;82.20;;;;;;5091968;28;20036;-64
2022/01/13 06:53:33;;;;;;;23.43;11.87;;;5.80;82.30;;;;;;5094419;28;20032;-63
2022/01/13 06:55:59;;;;;;;24.20;12.20;;;5.80;82.30;;;;;;5094715;28;20020;-63
2022/01/13 06:58:25;;;;;;;24.97;12.00;;;5.80;82.30;;;;;;5095326;28;20024;-63
2022/01/13 07:00:50;;;;;;;21.13;10.43;;;5.90;82.30;;;;;;5097131;28;20028;-63
2022/01/13 07:03:16;;;;;;;25.73;12.90;;;5.80;82.30;;;;;;5081219;28;20464;-63
2022/01/13 07:05:41;;;;;;;24.30;12.63;;;5.80;82.30;;;;;;5095507;28;20040;-63
2022/01/13 07:08:12;;;;;;;27.03;12.83;;;5.80;82.20;;;;;;5096387;28;20036;-63
2022/01/13 07:10:38;;;;;;;24.20;11.77;;;5.90;82.20;;;;;;5096981;28;20064;-63
2022/01/13 07:13:04;;;;;;;25.30;12.13;;;5.80;82.20;;;;;;5082577;28;20032;-63
2022/01/13 07:15:31;;;;;;;23.13;11.20;;;5.80;82.10;;;;;;5093881;28;20428;-63
2022/01/13 07:17:57;;;;;;;27.23;13.10;;;5.80;82.20;;;;;;5096052;28;20111;-63
2022/01/13 07:20:24;;;;;;;28.27;13.47;;;5.80;82.20;;;;;;5092331;28;20028;-63
2022/01/13 07:22:51;;;;;;;24.40;12.53;;;5.80;82.20;;;;;;5084327;28;20565;-63
2022/01/13 07:25:17;;;;;;;27.80;13.30;;;5.80;82.20;;;;;;5084696;28;20036;-63
2022/01/13 07:27:43;;;;;;;24.07;11.13;;;5.90;82.30;;;;;;5096995;28;20397;-63
2022/01/13 07:30:10;;;;;;;26.43;12.43;;;5.90;82.20;;;;;;5108702;28;20055;-63
2022/01/13 07:32:37;;;;;;;22.93;10.60;;;5.90;82.20;;;;;;5086299;28;20359;-63
2022/01/13 07:35:03;;;;;;;29.53;13.63;;;5.90;82.20;;;;;;5094692;28;20028;-63
2022/01/13 07:37:29;;;;;;;24.30;12.83;;;5.90;82.20;;;;;;5096333;28;20119;-64
2022/01/13 07:39:55;;;;;;;27.40;11.43;;;5.90;82.30;;;;;;5095423;28;20425;-64
2022/01/13 07:42:23;;;;;;;22.83;11.30;;;5.90;82.30;;;;;;5088653;28;20032;-65
2022/01/13 07:44:49;;;;;;;27.03;14.13;;;5.90;82.30;;;;;;5095353;28;20035;-65
2022/01/13 07:47:15;;;;;;;28.83;12.03;;;6.00;82.30;;;;;;5093880;28;20160;-65
2022/01/13 07:49:41;;;;;;;26.03;12.60;;;6.00;82.00;;;;;;5095727;28;20035;-65
2022/01/13 07:52:06;;;;;;;27.03;13.77;;;6.10;82.00;;;;;;5095829;28;20032;-65
2022/01/13 07:54:32;;;;;;;33.03;12.97;;;6.10;82.00;;;;;;5095542;28;20059;-64
2022/01/13 07:56:59;;;;;;;27.10;14.37;;;6.10;81.90;;;;;;5093501;28;20032;-66
2022/01/13 07:59:29;;;;;;;27.10;13.23;;;6.10;82.00;;;;;;5093020;28;20463;-65
2022/01/13 08:01:55;;;;;;;28.57;12.93;;;6.10;82.00;;;;;;5092393;28;20028;-65
2022/01/13 08:04:21;;;;;;;31.80;12.47;;;6.10;82.00;;;;;;5091462;28;20024;-65
2022/01/13 08:06:47;;;;;;;22.53;9.70;;;6.10;82.10;;;;;;5093902;28;20114;-65
2022/01/13 08:09:13;;;;;;;34.10;11.77;;;6.10;82.10;;;;;;5105255;28;20039;-65
2022/01/13 08:11:38;;;;;;;23.40;10.97;;;6.10;82.00;;;;;;5094430;28;20357;-65
2022/01/13 08:14:04;;;;;;;25.67;11.77;;;6.10;82.10;;;;;;5093227;28;20032;-65
2022/01/13 08:16:34;;;;;;;23.63;10.90;;;6.10;82.20;;;;;;5092113;28;20039;-65
2022/01/13 08:21:43;;;;;;;19.50;9.47;;;6.10;82.20;;;;;;5094122;28;20035;-65
2022/01/13 08:24:09;;;;;;;32.93;12.47;;;6.10;82.20;;;;;;5092512;28;20032;-65
2022/01/13 08:26:35;;;;;;;19.30;10.50;;;6.10;82.20;;;;;;5093466;28;20347;-66
2022/01/13 08:29:00;;;;;;;24.47;11.70;;;6.10;82.10;;;;;;5093131;28;20042;-66
2022/01/13 08:31:26;;;;;;;21.70;10.90;;;6.10;82.10;;;;;;5093004;28;20123;-64
2022/01/13 08:33:52;;;;;;;22.37;11.43;;;6.20;82.10;;;;;;5093894;28;20028;-65
2022/01/13 08:36:17;;;;;;;22.40;11.03;;;6.10;82.10;;;;;;5091809;28;20032;-64
2022/01/13 08:38:43;;;;;;;24.60;12.40;;;6.10;82.20;;;;;;5094035;28;20024;-67
2022/01/13 08:41:08;;;;;;;22.63;11.57;;;6.10;82.20;;;;;;5098565;28;20028;-67
2022/01/13 08:43:36;;;;;;;23.30;11.13;;;6.10;82.10;;;;;;5092354;28;20047;-67
2022/01/13 08:46:03;;;;;;;20.40;9.87;;;6.10;82.10;;;;;;5093555;28;20063;-66
2022/01/13 08:48:29;;;;;;;21.53;9.57;;;6.10;82.10;;;;;;5093883;28;20036;-66
2022/01/13 08:50:56;;;;;;;20.20;10.53;;;6.20;82.10;;;;;;5093424;28;20024;-66
2022/01/13 08:53:21;;;;;;;17.97;9.30;;;6.10;82.00;;;;;;5093438;28;20326;-66
2022/01/13 08:55:48;;;;;;;19.17;9.67;;;6.20;82.10;;;;;;5093047;28;20027;-67
2022/01/13 08:58:13;;;;;;;20.33;8.97;;;6.20;82.10;;;;;;5094509;28;20024;-66
2022/01/13 09:00:40;;;;;;;17.73;8.67;;;6.20;82.10;;;;;;5095312;28;20028;-67
2022/01/13 09:03:07;;;;;;;23.30;9.13;;;6.20;82.00;;;;;;5095083;28;20063;-66
2022/01/13 09:05:34;;;;;;;18.67;9.37;;;6.20;82.00;;;;;;5093806;28;20043;-67
2022/01/13 09:08:02;;;;;;;20.80;9.60;;;6.20;82.00;;;;;;5092464;28;20060;-67
2022/01/13 09:10:27;;;;;;;18.80;10.10;;;6.20;81.90;;;;;;5088829;28;20085;-68
2022/01/13 09:12:53;;;;;;;20.03;9.90;;;6.20;81.90;;;;;;5094604;28;20032;-68
2022/01/13 09:15:30;;;;;;;15.87;8.00;;;6.20;82.00;;;;;;5094103;28;20062;-67
2022/01/13 09:17:56;;;;;;;20.03;9.63;;;6.20;82.00;;;;;;5093719;28;20168;-67
2022/01/13 09:20:21;;;;;;;17.43;8.40;;;6.10;82.00;;;;;;5091692;28;20039;-67
2022/01/13 09:22:47;;;;;;;17.70;8.37;;;6.20;82.00;;;;;;5082573;28;20028;-67
2022/01/13 09:25:13;;;;;;;19.27;9.93;;;6.20;81.90;;;;;;5087981;28;20020;-67
2022/01/13 09:27:41;;;;;;;17.60;8.13;;;6.20;82.00;;;;;;5085484;28;20453;-67
2022/01/13 09:30:13;;;;;;;19.63;10.40;;;6.20;82.00;;;;;;5075127;28;20025;-66
2022/01/13 09:32:38;;;;;;;20.17;9.40;;;6.20;82.00;;;;;;5078820;28;20036;-66
2022/01/13 09:35:06;;;;;;;17.47;8.97;;;6.20;82.00;;;;;;5092537;28;20084;-66
2022/01/13 09:37:33;;;;;;;19.40;9.73;;;6.20;81.90;;;;;;5090243;28;20465;-66
2022/01/13 09:39:59;;;;;;;21.53;10.30;;;6.20;81.90;;;;;;5092408;28;20447;-66
2022/01/13 09:42:26;;;;;;;16.47;8.57;;;6.20;81.80;;;;;;5086096;28;20032;-66
2022/01/13 09:44:54;;;;;;;17.10;9.07;;;6.20;81.80;;;;;;5081022;28;20138;-66
2022/01/13 09:47:20;;;;;;;16.57;8.10;;;6.20;81.70;;;;;;5091059;28;20023;-65
2022/01/13 09:49:46;;;;;;;18.63;8.97;;;6.20;81.70;;;;;;5089637;28;20146;-66
2022/01/13 09:52:12;;;;;;;15.40;7.77;;;6.30;81.70;;;;;;5086776;28;20059;-65
2022/01/13 09:54:38;;;;;;;16.70;8.23;;;6.30;81.60;;;;;;5086274;28;20454;-67
2022/01/13 09:57:03;;;;;;;19.57;10.10;;;6.30;81.60;;;;;;5073949;28;20065;-66
2022/01/13 09:59:29;;;;;;;17.43;9.70;;;6.30;81.60;;;;;;5091263;28;20115;-66
2022/01/13 10:01:54;;;;;;;19.27;9.20;;;6.30;81.60;;;;;;5088330;28;20020;-66
2022/01/13 10:04:20;;;;;;;19.97;10.47;;;6.30;81.60;;;;;;5087927;28;20024;-66
2022/01/13 10:06:47;;;;;;;19.07;10.07;;;6.30;81.60;;;;;;5088687;28;20032;-66
2022/01/13 10:09:14;;;;;;;18.57;9.70;;;6.30;81.60;;;;;;5085105;28;20074;-66
2022/01/13 10:11:44;;;;;;;18.10;9.13;;;6.30;81.70;;;;;;5083472;28;20396;-66
2022/01/13 10:16:54;;;;;;;20.20;9.50;;;6.30;81.80;;;;;;5078387;28;20036;-66
2022/01/13 10:19:30;;;;;;;19.63;9.07;;;6.30;81.70;;;;;;5078837;28;20032;-65
2022/01/13 10:21:59;;;;;;;20.47;9.53;;;6.40;81.80;;;;;;5089178;28;20086;-65
2022/01/13 10:24:27;;;;;;;16.83;8.63;;;6.40;81.70;;;;;;5082475;28;20337;-65
2022/01/13 10:27:07;;;;;;;16.60;9.30;;;6.40;81.70;;;;;;5084293;28;21195;-65
2022/01/13 10:30:00;;;;;;;16.87;9.03;;;6.50;81.70;;;;;;5097261;28;20075;-66
2022/01/13 10:32:36;;;;;;;17.27;8.47;;;6.40;81.60;;;;;;5089149;28;20113;-66
2022/01/13 10:35:11;;;;;;;18.27;10.00;;;6.50;81.60;;;;;;5095391;28;20028;-67
2022/01/13 10:37:42;;;;;;;20.20;10.30;;;6.50;81.60;;;;;;5087583;28;20024;-67
2022/01/13 10:40:10;;;;;;;19.43;9.60;;;6.50;81.60;;;;;;5088594;28;20016;-67
2022/01/13 10:45:20;;;;;;;15.63;8.43;;;6.50;81.60;;;;;;5094752;28;20024;-67
2022/01/13 10:47:56;;;;;;;18.40;9.53;;;6.50;81.60;;;;;;5095084;28;20107;-65
2022/01/13 10:50:27;;;;;;;17.07;9.13;;;6.50;81.50;;;;;;5095622;28;20043;-67
2022/01/13 10:52:52;;;;;;;15.80;8.73;;;6.50;81.60;;;;;;5096134;28;20059;-66
2022/01/13 10:55:24;;;;;;;17.37;8.40;;;6.50;81.60;;;;;;5078422;28;20356;-66
2022/01/13 10:57:51;;;;;;;18.77;9.85;;;6.50;81.70;;;;;;5076185;28;20448;-66
2022/01/13 11:00:17;;;;;;;17.07;8.90;;;6.50;81.70;;;;;;5095649;28;20377;-66
2022/01/13 11:02:44;;;;;;;20.27;10.37;;;6.50;81.60;;;;;;5092871;28;20040;-66
2022/01/13 11:05:10;;;;;;;17.90;8.87;;;6.50;81.60;;;;;;5094678;28;20038;-66
2022/01/13 11:07:37;;;;;;;19.43;10.60;;;6.60;81.60;;;;;;5092659;28;20053;-66
2022/01/13 11:10:06;;;;;;;20.00;10.70;;;6.60;81.70;;;;;;5092955;28;20038;-67
2022/01/13 11:12:38;;;;;;;17.73;9.10;;;6.60;81.60;;;;;;5092984;28;20337;-67
2022/01/13 11:15:07;;;;;;;20.33;10.43;;;6.60;81.60;;;;;;5094013;28;20016;-68
2022/01/13 11:17:37;;;;;;;16.53;8.77;;;6.60;81.60;;;;;;5094584;28;20074;-67
2022/01/13 11:20:06;;;;;;;17.37;9.10;;;6.60;81.60;;;;;;5093790;28;20380;-66
2022/01/13 11:22:36;;;;;;;15.67;8.50;;;6.60;81.60;;;;;;5095637;28;20034;-66
2022/01/13 11:25:07;;;;;;;22.00;10.33;;;6.60;81.60;;;;;;5107033;28;20151;-67
2022/01/13 11:27:33;;;;;;;19.77;9.57;;;6.60;81.60;;;;;;5094737;28;20036;-67
2022/01/13 11:29:59;;;;;;;20.50;10.43;;;6.60;81.60;;;;;;5094587;28;20307;-67
2022/01/13 11:32:26;;;;;;;19.97;11.03;;;6.60;81.60;;;;;;5095335;28;20181;-67
2022/01/13 11:34:53;;;;;;;18.67;9.73;;;6.60;81.60;;;;;;5095684;28;20508;-67
2022/01/13 11:37:19;;;;;;;21.53;11.10;;;6.60;81.60;;;;;;5095811;28;20012;-68
2022/01/13 11:39:45;;;;;;;19.27;10.57;;;6.60;81.60;;;;;;5096197;28;20350;-67
2022/01/13 11:42:14;;;;;;;18.77;9.73;;;6.60;81.60;;;;;;5095827;28;20020;-66
2022/01/13 11:44:42;;;;;;;21.67;11.90;;;6.60;81.60;;;;;;5094944;28;20025;-67
2022/01/13 11:47:19;;;;;;;21.10;10.07;;;6.60;81.70;;;;;;5076292;28;20340;-67
2022/01/13 11:52:16;;;;;;;24.37;11.80;;;6.60;81.80;;;;;;5098228;28;20024;-66
2022/01/13 11:54:43;;;;;;;24.60;12.10;;;6.60;81.80;;;;;;5096936;28;20051;-67
2022/01/13 11:57:23;;;;;;;21.63;10.70;;;6.60;81.80;;;;;;5094728;28;20028;-67
2022/01/13 12:00:00;;;;;;;19.43;10.57;;;6.60;81.80;;;;;;5094747;28;20063;-67
2022/01/13 12:02:32;;;;;;;22.40;12.03;;;6.60;81.90;;;;;;5094188;28;20116;-67
2022/01/13 12:05:20;;;;;;;18.65;9.85;;;6.50;81.80;;;;;;5094584;28;20038;-67
2022/01/13 12:07:51;;;;;;;21.97;11.50;;;6.50;81.70;;;;;;5095970;28;20032;-67
2022/01/13 12:10:34;;;;;;;24.20;12.30;;;6.50;81.90;;;;;;5094876;28;20028;-66
2022/01/13 12:13:20;;;;;;;21.73;11.10;;;6.50;81.90;;;;;;5095731;28;20055;-67
2022/01/13 12:15:46;;;;;;;21.30;11.43;;;6.50;81.90;;;;;;5094837;28;20028;-66
2022/01/13 12:18:11;;;;;;;21.77;11.13;;;6.50;81.90;;;;;;5096154;28;20060;-67
2022/01/13 12:20:47;;;;;;;23.87;12.57;;;6.60;81.90;;;;;;5095260;28;20444;-68
2022/01/13 12:23:37;;;;;;;23.83;11.93;;;6.60;81.90;;;;;;5094659;28;20047;-67
2022/01/13 12:26:03;;;;;;;18.03;9.63;;;6.60;81.80;;;;;;5095511;28;20333;-66
2022/01/13 12:28:29;;;;;;;20.73;11.23;;;6.60;81.80;;;;;;5094282;28;20570;-68
2022/01/13 12:30:54;;;;;;;20.37;9.53;;;6.60;81.80;;;;;;5087673;28;20107;-67
2022/01/13 12:33:33;;;;;;;21.50;10.50;;;6.60;81.80;;;;;;5094808;28;20044;-67
2022/01/13 12:35:59;;;;;;;20.00;10.33;;;6.60;81.80;;;;;;5098633;28;20020;-68
2022/01/13 12:38:26;;;;;;;18.67;9.50;;;6.60;81.90;;;;;;5094070;28;20066;-67
2022/01/13 12:41:14;;;;;;;18.13;10.07;;;6.60;81.90;;;;;;5091539;28;20024;-68
2022/01/13 12:46:15;;;;;;;16.90;9.10;;;6.60;81.90;;;;;;5095568;28;20081;-67
2022/01/13 12:48:44;;;;;;;20.00;9.70;;;6.60;81.80;;;;;;5092684;28;20365;-67
2022/01/13 12:51:18;;;;;;;18.60;10.37;;;6.60;81.80;;;;;;5092561;28;20028;-67
2022/01/13 12:53:44;;;;;;;19.07;9.57;;;6.60;81.80;;;;;;5093798;28;20337;-67
2022/01/13 12:56:14;;;;;;;19.13;10.60;;;6.60;81.80;;;;;;5092818;28;20031;-68
2022/01/13 12:58:46;;;;;;;21.80;10.30;;;6.50;81.90;;;;;;5092790;28;20083;-68
2022/01/13 13:01:14;;;;;;;;;;;6.50;81.80;;;;;;5093323;28;20020;-68
2022/01/13 13:03:40;;;;;;;21.73;10.57;;;6.50;81.80;;;;;;5092749;28;19904;-68
2022/01/13 13:06:11;;;;;;;17.73;8.90;;;6.50;81.80;;;;;;5093509;28;20043;-68
2022/01/13 13:08:43;;;;;;;19.25;10.02;;;6.50;81.80;;;;;;5092593;28;20024;-68
2022/01/13 13:11:08;;;;;;;20.30;9.90;;;6.60;81.80;;;;;;5076084;28;20123;-67
2022/01/13 13:13:47;;;;;;;19.63;10.60;;;6.50;81.70;;;;;;5093646;28;20111;-68